sensor_id;sensor_type;location;lat;lon;timestamp;P1;durP1;ratioP1;P2;durP2;ratioP2
53654;SDS011;39558;52.028;8.536;2023-04-25T00:01:28;0.70;;;0.20;;
53654;SDS011;39558;52.028;8.536;2023-04-25T00:03:54;1.52;;;0.40;;
53654;SDS011;39558;52.028;8.536;2023-04-25T00:06:20;1.77;;;0.55;;
53654;SDS011;39558;52.028;8.536;2023-04-25T00:08:47;0.75;;;0.25;;
53654;SDS011;39558;52.028;8.536;2023-04-25T00:11:13;0.47;;;0.30;;
53654;SDS011;39558;52.028;8.536;2023-04-25T00:13:39;0.60;;;0.20;;
53654;SDS011;39558;52.028;8.536;2023-04-25T00:16:06;0.60;;;0.38;;
53654;SDS011;39558;52.028;8.536;2023-04-25T00:18:32;1.33;;;0.40;;
53654;SDS011;39558;52.028;8.536;2023-04-25T00:20:58;1.58;;;0.45;;
53654;SDS011;39558;52.028;8.536;2023-04-25T00:23:24;1.27;;;0.47;;
53654;SDS011;39558;52.028;8.536;2023-04-25T00:25:51;1.40;;;0.40;;
53654;SDS011;39558;52.028;8.536;2023-04-25T00:28:17;0.90;;;0.20;;
53654;SDS011;39558;52.028;8.536;2023-04-25T00:30:43;1.33;;;0.50;;
53654;SDS011;39558;52.028;8.536;2023-04-25T00:33:09;0.68;;;0.20;;
53654;SDS011;39558;52.028;8.536;2023-04-25T00:35:35;1.20;;;0.70;;
53654;SDS011;39558;52.028;8.536;2023-04-25T00:38:01;0.70;;;0.38;;
53654;SDS011;39558;52.028;8.536;2023-04-25T00:40:27;1.05;;;0.30;;
53654;SDS011;39558;52.028;8.536;2023-04-25T00:42:53;0.40;;;0.30;;
53654;SDS011;39558;52.028;8.536;2023-04-25T00:45:19;1.98;;;0.20;;
53654;SDS011;39558;52.028;8.536;2023-04-25T00:47:45;1.08;;;0.30;;
53654;SDS011;39558;52.028;8.536;2023-04-25T00:50:12;0.55;;;0.25;;
53654;SDS011;39558;52.028;8.536;2023-04-25T00:52:43;0.82;;;0.32;;
53654;SDS011;39558;52.028;8.536;2023-04-25T00:55:09;0.77;;;0.30;;
53654;SDS011;39558;52.028;8.536;2023-04-25T00:57:36;1.38;;;0.43;;
53654;SDS011;39558;52.028;8.536;2023-04-25T01:00:03;1.13;;;0.45;;
53654;SDS011;39558;52.028;8.536;2023-04-25T01:02:30;0.50;;;0.30;;
53654;SDS011;39558;52.028;8.536;2023-04-25T01:04:56;0.70;;;0.28;;
53654;SDS011;39558;52.028;8.536;2023-04-25T01:07:23;0.77;;;0.38;;
53654;SDS011;39558;52.028;8.536;2023-04-25T01:09:49;1.98;;;0.43;;
53654;SDS011;39558;52.028;8.536;2023-04-25T01:12:16;0.68;;;0.40;;
53654;SDS011;39558;52.028;8.536;2023-04-25T01:14:42;1.83;;;0.50;;
53654;SDS011;39558;52.028;8.536;2023-04-25T01:17:09;1.98;;;0.35;;
53654;SDS011;39558;52.028;8.536;2023-04-25T01:19:35;1.42;;;0.30;;
53654;SDS011;39558;52.028;8.536;2023-04-25T01:22:01;1.50;;;0.40;;
53654;SDS011;39558;52.028;8.536;2023-04-25T01:24:27;0.60;;;0.28;;
53654;SDS011;39558;52.028;8.536;2023-04-25T01:26:53;1.00;;;0.40;;
53654;SDS011;39558;52.028;8.536;2023-04-25T01:29:21;0.22;;;0.20;;
53654;SDS011;39558;52.028;8.536;2023-04-25T01:31:47;0.82;;;0.40;;
53654;SDS011;39558;52.028;8.536;2023-04-25T01:34:13;0.60;;;0.30;;
53654;SDS011;39558;52.028;8.536;2023-04-25T01:36:39;1.27;;;0.40;;
53654;SDS011;39558;52.028;8.536;2023-04-25T01:39:05;1.35;;;0.50;;
53654;SDS011;39558;52.028;8.536;2023-04-25T01:41:31;1.85;;;0.40;;
53654;SDS011;39558;52.028;8.536;2023-04-25T01:43:59;1.08;;;0.30;;
53654;SDS011;39558;52.028;8.536;2023-04-25T01:46:25;1.08;;;0.30;;
53654;SDS011;39558;52.028;8.536;2023-04-25T01:48:51;0.98;;;0.30;;
53654;SDS011;39558;52.028;8.536;2023-04-25T01:51:17;1.92;;;0.47;;
53654;SDS011;39558;52.028;8.536;2023-04-25T01:53:43;2.75;;;0.60;;
53654;SDS011;39558;52.028;8.536;2023-04-25T01:56:09;1.55;;;0.20;;
53654;SDS011;39558;52.028;8.536;2023-04-25T01:58:35;1.20;;;0.35;;
53654;SDS011;39558;52.028;8.536;2023-04-25T02:01:01;2.53;;;0.63;;
53654;SDS011;39558;52.028;8.536;2023-04-25T02:03:27;1.38;;;0.55;;
53654;SDS011;39558;52.028;8.536;2023-04-25T02:05:53;0.60;;;0.30;;
53654;SDS011;39558;52.028;8.536;2023-04-25T02:08:19;2.47;;;0.70;;
53654;SDS011;39558;52.028;8.536;2023-04-25T02:10:45;0.57;;;0.40;;
53654;SDS011;39558;52.028;8.536;2023-04-25T02:13:10;1.50;;;0.32;;
53654;SDS011;39558;52.028;8.536;2023-04-25T02:15:36;0.68;;;0.40;;
53654;SDS011;39558;52.028;8.536;2023-04-25T02:18:02;1.38;;;0.50;;
53654;SDS011;39558;52.028;8.536;2023-04-25T02:20:29;1.55;;;0.40;;
53654;SDS011;39558;52.028;8.536;2023-04-25T02:22:55;1.15;;;0.43;;
53654;SDS011;39558;52.028;8.536;2023-04-25T02:25:21;0.88;;;0.25;;
53654;SDS011;39558;52.028;8.536;2023-04-25T02:27:47;1.70;;;0.68;;
53654;SDS011;39558;52.028;8.536;2023-04-25T02:30:13;2.20;;;0.40;;
53654;SDS011;39558;52.028;8.536;2023-04-25T02:32:40;1.45;;;0.50;;
53654;SDS011;39558;52.028;8.536;2023-04-25T02:35:06;2.88;;;0.90;;
53654;SDS011;39558;52.028;8.536;2023-04-25T02:37:33;1.25;;;0.50;;
53654;SDS011;39558;52.028;8.536;2023-04-25T02:39:59;1.15;;;0.40;;
53654;SDS011;39558;52.028;8.536;2023-04-25T02:42:25;1.55;;;0.45;;
53654;SDS011;39558;52.028;8.536;2023-04-25T02:44:51;1.48;;;0.32;;
53654;SDS011;39558;52.028;8.536;2023-04-25T02:47:17;2.72;;;1.30;;
53654;SDS011;39558;52.028;8.536;2023-04-25T02:49:43;0.80;;;0.40;;
53654;SDS011;39558;52.028;8.536;2023-04-25T02:52:10;1.15;;;0.50;;
53654;SDS011;39558;52.028;8.536;2023-04-25T02:54:35;3.10;;;0.40;;
53654;SDS011;39558;52.028;8.536;2023-04-25T02:57:01;1.83;;;1.02;;
53654;SDS011;39558;52.028;8.536;2023-04-25T02:59:27;0.65;;;0.30;;
53654;SDS011;39558;52.028;8.536;2023-04-25T03:01:53;1.85;;;0.55;;
53654;SDS011;39558;52.028;8.536;2023-04-25T03:04:19;1.33;;;0.73;;
53654;SDS011;39558;52.028;8.536;2023-04-25T03:06:45;1.60;;;0.38;;
53654;SDS011;39558;52.028;8.536;2023-04-25T03:09:11;1.35;;;0.55;;
53654;SDS011;39558;52.028;8.536;2023-04-25T03:11:38;3.25;;;0.40;;
53654;SDS011;39558;52.028;8.536;2023-04-25T03:14:04;0.68;;;0.32;;
53654;SDS011;39558;52.028;8.536;2023-04-25T03:16:30;0.95;;;0.30;;
53654;SDS011;39558;52.028;8.536;2023-04-25T03:18:56;1.85;;;0.55;;
53654;SDS011;39558;52.028;8.536;2023-04-25T03:21:22;2.50;;;0.47;;
53654;SDS011;39558;52.028;8.536;2023-04-25T03:23:48;1.85;;;0.50;;
53654;SDS011;39558;52.028;8.536;2023-04-25T03:26:14;0.47;;;0.28;;
53654;SDS011;39558;52.028;8.536;2023-04-25T03:28:40;1.92;;;0.52;;
53654;SDS011;39558;52.028;8.536;2023-04-25T03:31:06;2.38;;;0.70;;
53654;SDS011;39558;52.028;8.536;2023-04-25T03:33:32;2.40;;;0.68;;
53654;SDS011;39558;52.028;8.536;2023-04-25T03:35:58;1.35;;;0.60;;
53654;SDS011;39558;52.028;8.536;2023-04-25T03:38:23;1.35;;;0.50;;
53654;SDS011;39558;52.028;8.536;2023-04-25T03:40:50;1.30;;;0.40;;
53654;SDS011;39558;52.028;8.536;2023-04-25T03:43:16;2.13;;;0.65;;
53654;SDS011;39558;52.028;8.536;2023-04-25T03:45:42;2.63;;;1.10;;
53654;SDS011;39558;52.028;8.536;2023-04-25T03:48:08;1.30;;;0.47;;
53654;SDS011;39558;52.028;8.536;2023-04-25T03:50:34;0.90;;;0.50;;
53654;SDS011;39558;52.028;8.536;2023-04-25T03:53:00;2.17;;;0.63;;
53654;SDS011;39558;52.028;8.536;2023-04-25T03:55:26;1.35;;;0.38;;
53654;SDS011;39558;52.028;8.536;2023-04-25T03:57:52;1.50;;;0.45;;
53654;SDS011;39558;52.028;8.536;2023-04-25T04:00:18;2.45;;;0.52;;
53654;SDS011;39558;52.028;8.536;2023-04-25T04:02:44;2.10;;;0.40;;
53654;SDS011;39558;52.028;8.536;2023-04-25T04:05:10;1.88;;;0.45;;
53654;SDS011;39558;52.028;8.536;2023-04-25T04:07:35;2.28;;;0.65;;
53654;SDS011;39558;52.028;8.536;2023-04-25T04:10:06;2.95;;;0.60;;
53654;SDS011;39558;52.028;8.536;2023-04-25T04:12:32;1.35;;;0.55;;
53654;SDS011;39558;52.028;8.536;2023-04-25T04:14:58;2.70;;;0.68;;
53654;SDS011;39558;52.028;8.536;2023-04-25T04:17:24;1.55;;;0.40;;
53654;SDS011;39558;52.028;8.536;2023-04-25T04:19:50;3.28;;;0.52;;
53654;SDS011;39558;52.028;8.536;2023-04-25T04:22:16;2.38;;;0.55;;
53654;SDS011;39558;52.028;8.536;2023-04-25T04:24:42;1.55;;;0.50;;
53654;SDS011;39558;52.028;8.536;2023-04-25T04:27:12;1.48;;;0.55;;
53654;SDS011;39558;52.028;8.536;2023-04-25T04:29:38;2.30;;;0.55;;
53654;SDS011;39558;52.028;8.536;2023-04-25T04:32:04;1.45;;;0.93;;
53654;SDS011;39558;52.028;8.536;2023-04-25T04:34:30;1.27;;;0.50;;
53654;SDS011;39558;52.028;8.536;2023-04-25T04:36:56;1.30;;;0.60;;
53654;SDS011;39558;52.028;8.536;2023-04-25T04:39:22;1.38;;;0.30;;
53654;SDS011;39558;52.028;8.536;2023-04-25T04:41:48;1.95;;;0.45;;
53654;SDS011;39558;52.028;8.536;2023-04-25T04:44:15;2.42;;;0.50;;
53654;SDS011;39558;52.028;8.536;2023-04-25T04:46:41;1.25;;;0.35;;
53654;SDS011;39558;52.028;8.536;2023-04-25T04:49:08;1.90;;;0.40;;
53654;SDS011;39558;52.028;8.536;2023-04-25T04:51:34;4.30;;;0.60;;
53654;SDS011;39558;52.028;8.536;2023-04-25T04:54:01;3.75;;;0.50;;
53654;SDS011;39558;52.028;8.536;2023-04-25T04:56:28;1.08;;;0.30;;
53654;SDS011;39558;52.028;8.536;2023-04-25T04:58:55;2.10;;;0.43;;
53654;SDS011;39558;52.028;8.536;2023-04-25T05:01:21;1.73;;;0.50;;
53654;SDS011;39558;52.028;8.536;2023-04-25T05:03:47;1.23;;;0.52;;
53654;SDS011;39558;52.028;8.536;2023-04-25T05:06:13;2.10;;;0.60;;
53654;SDS011;39558;52.028;8.536;2023-04-25T05:08:39;1.48;;;0.50;;
53654;SDS011;39558;52.028;8.536;2023-04-25T05:11:05;2.05;;;0.45;;
53654;SDS011;39558;52.028;8.536;2023-04-25T05:13:31;1.27;;;0.45;;
53654;SDS011;39558;52.028;8.536;2023-04-25T05:15:57;1.92;;;0.70;;
53654;SDS011;39558;52.028;8.536;2023-04-25T05:18:23;1.52;;;0.40;;
53654;SDS011;39558;52.028;8.536;2023-04-25T05:20:49;0.60;;;0.40;;
53654;SDS011;39558;52.028;8.536;2023-04-25T05:23:15;1.40;;;0.40;;
53654;SDS011;39558;52.028;8.536;2023-04-25T05:25:41;0.80;;;0.35;;
53654;SDS011;39558;52.028;8.536;2023-04-25T05:28:07;2.70;;;0.73;;
53654;SDS011;39558;52.028;8.536;2023-04-25T05:30:33;1.35;;;0.50;;
53654;SDS011;39558;52.028;8.536;2023-04-25T05:32:59;3.25;;;0.98;;
53654;SDS011;39558;52.028;8.536;2023-04-25T05:35:25;0.90;;;0.40;;
53654;SDS011;39558;52.028;8.536;2023-04-25T05:37:51;5.03;;;1.02;;
53654;SDS011;39558;52.028;8.536;2023-04-25T05:40:17;1.45;;;0.40;;
53654;SDS011;39558;52.028;8.536;2023-04-25T05:42:43;1.52;;;0.50;;
53654;SDS011;39558;52.028;8.536;2023-04-25T05:45:09;2.10;;;0.50;;
53654;SDS011;39558;52.028;8.536;2023-04-25T05:47:35;2.35;;;0.63;;
53654;SDS011;39558;52.028;8.536;2023-04-25T05:50:01;0.82;;;0.25;;
53654;SDS011;39558;52.028;8.536;2023-04-25T05:52:27;1.85;;;0.65;;
53654;SDS011;39558;52.028;8.536;2023-04-25T05:54:53;3.10;;;0.63;;
53654;SDS011;39558;52.028;8.536;2023-04-25T05:57:19;0.93;;;0.40;;
53654;SDS011;39558;52.028;8.536;2023-04-25T05:59:46;3.33;;;0.70;;
53654;SDS011;39558;52.028;8.536;2023-04-25T06:02:11;3.00;;;0.35;;
53654;SDS011;39558;52.028;8.536;2023-04-25T06:04:37;1.98;;;0.68;;
53654;SDS011;39558;52.028;8.536;2023-04-25T06:07:03;0.98;;;0.40;;
53654;SDS011;39558;52.028;8.536;2023-04-25T06:09:30;2.03;;;0.40;;
53654;SDS011;39558;52.028;8.536;2023-04-25T06:11:56;1.58;;;0.43;;
53654;SDS011;39558;52.028;8.536;2023-04-25T06:14:22;2.85;;;0.50;;
53654;SDS011;39558;52.028;8.536;2023-04-25T06:16:48;1.10;;;0.47;;
53654;SDS011;39558;52.028;8.536;2023-04-25T06:19:14;0.50;;;0.30;;
53654;SDS011;39558;52.028;8.536;2023-04-25T06:21:41;2.05;;;0.38;;
53654;SDS011;39558;52.028;8.536;2023-04-25T06:24:07;2.35;;;0.50;;
53654;SDS011;39558;52.028;8.536;2023-04-25T06:26:33;2.58;;;0.82;;
53654;SDS011;39558;52.028;8.536;2023-04-25T06:28:59;1.83;;;0.57;;
53654;SDS011;39558;52.028;8.536;2023-04-25T06:31:25;1.55;;;0.57;;
53654;SDS011;39558;52.028;8.536;2023-04-25T06:33:51;1.65;;;0.47;;
53654;SDS011;39558;52.028;8.536;2023-04-25T06:36:20;1.38;;;0.50;;
53654;SDS011;39558;52.028;8.536;2023-04-25T06:41:15;0.98;;;0.50;;
53654;SDS011;39558;52.028;8.536;2023-04-25T06:43:41;1.42;;;0.40;;
53654;SDS011;39558;52.028;8.536;2023-04-25T06:46:07;1.15;;;0.35;;
53654;SDS011;39558;52.028;8.536;2023-04-25T06:48:33;1.60;;;0.43;;
53654;SDS011;39558;52.028;8.536;2023-04-25T06:50:59;1.10;;;0.60;;
53654;SDS011;39558;52.028;8.536;2023-04-25T06:53:25;1.77;;;0.50;;
53654;SDS011;39558;52.028;8.536;2023-04-25T06:55:51;2.22;;;0.60;;
53654;SDS011;39558;52.028;8.536;2023-04-25T06:58:17;1.92;;;0.60;;
53654;SDS011;39558;52.028;8.536;2023-04-25T07:00:43;3.03;;;0.60;;
53654;SDS011;39558;52.028;8.536;2023-04-25T07:03:09;2.15;;;0.63;;
53654;SDS011;39558;52.028;8.536;2023-04-25T07:05:35;3.28;;;0.50;;
53654;SDS011;39558;52.028;8.536;2023-04-25T07:08:01;1.85;;;0.55;;
53654;SDS011;39558;52.028;8.536;2023-04-25T07:10:27;2.03;;;0.93;;
53654;SDS011;39558;52.028;8.536;2023-04-25T07:12:53;2.25;;;0.70;;
53654;SDS011;39558;52.028;8.536;2023-04-25T07:15:20;3.03;;;0.80;;
53654;SDS011;39558;52.028;8.536;2023-04-25T07:17:46;2.90;;;0.60;;
53654;SDS011;39558;52.028;8.536;2023-04-25T07:20:12;2.78;;;0.60;;
53654;SDS011;39558;52.028;8.536;2023-04-25T07:22:39;1.92;;;0.50;;
53654;SDS011;39558;52.028;8.536;2023-04-25T07:25:05;1.75;;;0.60;;
53654;SDS011;39558;52.028;8.536;2023-04-25T07:27:31;1.95;;;0.57;;
53654;SDS011;39558;52.028;8.536;2023-04-25T07:29:57;1.77;;;0.60;;
53654;SDS011;39558;52.028;8.536;2023-04-25T07:32:23;2.05;;;0.60;;
53654;SDS011;39558;52.028;8.536;2023-04-25T07:34:49;2.45;;;0.50;;
53654;SDS011;39558;52.028;8.536;2023-04-25T07:37:17;4.32;;;0.60;;
53654;SDS011;39558;52.028;8.536;2023-04-25T07:39:43;1.67;;;0.55;;
53654;SDS011;39558;52.028;8.536;2023-04-25T07:42:11;2.75;;;0.80;;
53654;SDS011;39558;52.028;8.536;2023-04-25T07:44:37;2.67;;;0.60;;
53654;SDS011;39558;52.028;8.536;2023-04-25T07:47:05;3.08;;;0.95;;
53654;SDS011;39558;52.028;8.536;2023-04-25T07:49:36;2.25;;;0.60;;
53654;SDS011;39558;52.028;8.536;2023-04-25T07:52:02;4.47;;;1.23;;
53654;SDS011;39558;52.028;8.536;2023-04-25T07:54:28;3.20;;;0.85;;
53654;SDS011;39558;52.028;8.536;2023-04-25T07:56:54;2.08;;;0.50;;
53654;SDS011;39558;52.028;8.536;2023-04-25T07:59:20;1.65;;;0.55;;
53654;SDS011;39558;52.028;8.536;2023-04-25T08:01:47;2.33;;;0.70;;
53654;SDS011;39558;52.028;8.536;2023-04-25T08:04:13;2.92;;;0.65;;
53654;SDS011;39558;52.028;8.536;2023-04-25T08:06:39;4.10;;;0.60;;
53654;SDS011;39558;52.028;8.536;2023-04-25T08:09:08;3.33;;;0.93;;
53654;SDS011;39558;52.028;8.536;2023-04-25T08:11:34;3.53;;;0.70;;
53654;SDS011;39558;52.028;8.536;2023-04-25T08:14:00;1.27;;;0.50;;
53654;SDS011;39558;52.028;8.536;2023-04-25T08:16:26;4.32;;;0.73;;
53654;SDS011;39558;52.028;8.536;2023-04-25T08:18:52;3.25;;;0.82;;
53654;SDS011;39558;52.028;8.536;2023-04-25T08:21:18;3.03;;;0.80;;
53654;SDS011;39558;52.028;8.536;2023-04-25T08:23:45;1.58;;;0.57;;
53654;SDS011;39558;52.028;8.536;2023-04-25T08:26:11;3.85;;;0.90;;
53654;SDS011;39558;52.028;8.536;2023-04-25T08:28:37;2.80;;;1.00;;
53654;SDS011;39558;52.028;8.536;2023-04-25T08:31:03;4.00;;;0.93;;
53654;SDS011;39558;52.028;8.536;2023-04-25T08:33:29;2.53;;;0.70;;
53654;SDS011;39558;52.028;8.536;2023-04-25T08:35:56;2.17;;;0.80;;
53654;SDS011;39558;52.028;8.536;2023-04-25T08:38:22;4.57;;;0.90;;
53654;SDS011;39558;52.028;8.536;2023-04-25T08:40:51;2.92;;;0.80;;
53654;SDS011;39558;52.028;8.536;2023-04-25T08:43:18;2.60;;;0.82;;
53654;SDS011;39558;52.028;8.536;2023-04-25T08:45:44;4.95;;;0.68;;
53654;SDS011;39558;52.028;8.536;2023-04-25T08:48:14;2.05;;;0.70;;
53654;SDS011;39558;52.028;8.536;2023-04-25T08:50:43;2.10;;;0.80;;
53654;SDS011;39558;52.028;8.536;2023-04-25T08:53:10;2.70;;;1.00;;
53654;SDS011;39558;52.028;8.536;2023-04-25T08:55:45;3.58;;;0.73;;
53654;SDS011;39558;52.028;8.536;2023-04-25T08:58:12;2.30;;;0.70;;
53654;SDS011;39558;52.028;8.536;2023-04-25T09:00:39;3.58;;;0.70;;
53654;SDS011;39558;52.028;8.536;2023-04-25T09:03:05;3.78;;;0.88;;
53654;SDS011;39558;52.028;8.536;2023-04-25T09:05:32;2.28;;;0.70;;
53654;SDS011;39558;52.028;8.536;2023-04-25T09:07:58;2.63;;;0.93;;
53654;SDS011;39558;52.028;8.536;2023-04-25T09:10:25;7.32;;;0.82;;
53654;SDS011;39558;52.028;8.536;2023-04-25T09:13:07;3.50;;;0.90;;
53654;SDS011;39558;52.028;8.536;2023-04-25T09:15:50;14.82;;;2.90;;
53654;SDS011;39558;52.028;8.536;2023-04-25T09:18:26;8.98;;;2.55;;
53654;SDS011;39558;52.028;8.536;2023-04-25T09:20:53;9.27;;;1.80;;
53654;SDS011;39558;52.028;8.536;2023-04-25T09:23:19;6.32;;;1.70;;
53654;SDS011;39558;52.028;8.536;2023-04-25T09:25:47;8.27;;;2.20;;
53654;SDS011;39558;52.028;8.536;2023-04-25T09:28:13;6.80;;;1.70;;
53654;SDS011;39558;52.028;8.536;2023-04-25T09:30:38;5.97;;;1.80;;
53654;SDS011;39558;52.028;8.536;2023-04-25T09:33:05;5.43;;;1.67;;
53654;SDS011;39558;52.028;8.536;2023-04-25T09:35:35;7.93;;;1.80;;
53654;SDS011;39558;52.028;8.536;2023-04-25T09:38:01;4.30;;;1.42;;
53654;SDS011;39558;52.028;8.536;2023-04-25T09:40:32;6.00;;;1.27;;
53654;SDS011;39558;52.028;8.536;2023-04-25T09:42:58;9.57;;;1.52;;
53654;SDS011;39558;52.028;8.536;2023-04-25T09:45:24;9.70;;;1.52;;
53654;SDS011;39558;52.028;8.536;2023-04-25T09:47:50;7.40;;;1.38;;
53654;SDS011;39558;52.028;8.536;2023-04-25T09:50:16;5.07;;;1.15;;
53654;SDS011;39558;52.028;8.536;2023-04-25T09:52:44;6.20;;;1.48;;
53654;SDS011;39558;52.028;8.536;2023-04-25T09:55:10;4.85;;;1.27;;
53654;SDS011;39558;52.028;8.536;2023-04-25T09:57:36;6.50;;;1.35;;
53654;SDS011;39558;52.028;8.536;2023-04-25T10:00:05;6.55;;;1.58;;
53654;SDS011;39558;52.028;8.536;2023-04-25T10:02:36;7.97;;;1.08;;
53654;SDS011;39558;52.028;8.536;2023-04-25T10:05:05;5.35;;;1.77;;
53654;SDS011;39558;52.028;8.536;2023-04-25T10:07:31;5.72;;;1.80;;
53654;SDS011;39558;52.028;8.536;2023-04-25T10:10:00;6.88;;;1.10;;
53654;SDS011;39558;52.028;8.536;2023-04-25T10:14:58;6.57;;;1.40;;
53654;SDS011;39558;52.028;8.536;2023-04-25T10:17:24;4.25;;;1.02;;
53654;SDS011;39558;52.028;8.536;2023-04-25T10:19:52;7.20;;;1.52;;
53654;SDS011;39558;52.028;8.536;2023-04-25T10:24:47;5.68;;;1.42;;
53654;SDS011;39558;52.028;8.536;2023-04-25T10:27:14;7.70;;;1.33;;
53654;SDS011;39558;52.028;8.536;2023-04-25T10:29:40;5.53;;;1.05;;
53654;SDS011;39558;52.028;8.536;2023-04-25T10:32:09;2.63;;;1.00;;
53654;SDS011;39558;52.028;8.536;2023-04-25T10:37:10;4.57;;;1.20;;
53654;SDS011;39558;52.028;8.536;2023-04-25T10:39:37;3.05;;;1.02;;
53654;SDS011;39558;52.028;8.536;2023-04-25T10:42:04;3.78;;;0.98;;
53654;SDS011;39558;52.028;8.536;2023-04-25T10:44:30;2.95;;;1.00;;
53654;SDS011;39558;52.028;8.536;2023-04-25T10:46:57;4.85;;;1.27;;
53654;SDS011;39558;52.028;8.536;2023-04-25T10:49:33;2.50;;;0.85;;
53654;SDS011;39558;52.028;8.536;2023-04-25T10:54:52;2.80;;;0.90;;
53654;SDS011;39558;52.028;8.536;2023-04-25T10:57:37;2.67;;;0.88;;
53654;SDS011;39558;52.028;8.536;2023-04-25T11:00:13;4.75;;;1.23;;
53654;SDS011;39558;52.028;8.536;2023-04-25T11:02:48;2.85;;;1.20;;
53654;SDS011;39558;52.028;8.536;2023-04-25T11:07:50;3.33;;;1.00;;
53654;SDS011;39558;52.028;8.536;2023-04-25T11:10:24;2.00;;;0.70;;
53654;SDS011;39558;52.028;8.536;2023-04-25T11:12:50;3.92;;;1.00;;
53654;SDS011;39558;52.028;8.536;2023-04-25T11:15:16;3.60;;;1.38;;
53654;SDS011;39558;52.028;8.536;2023-04-25T11:17:42;2.47;;;0.98;;
53654;SDS011;39558;52.028;8.536;2023-04-25T11:20:11;2.22;;;0.63;;
53654;SDS011;39558;52.028;8.536;2023-04-25T11:22:38;5.13;;;1.27;;
53654;SDS011;39558;52.028;8.536;2023-04-25T11:25:08;3.97;;;1.15;;
53654;SDS011;39558;52.028;8.536;2023-04-25T11:27:34;2.58;;;1.13;;
53654;SDS011;39558;52.028;8.536;2023-04-25T11:30:09;4.53;;;0.90;;
53654;SDS011;39558;52.028;8.536;2023-04-25T11:32:35;2.47;;;0.63;;
53654;SDS011;39558;52.028;8.536;2023-04-25T11:35:01;6.15;;;1.40;;
53654;SDS011;39558;52.028;8.536;2023-04-25T11:37:28;3.83;;;1.00;;
53654;SDS011;39558;52.028;8.536;2023-04-25T11:39:53;2.53;;;0.70;;
53654;SDS011;39558;52.028;8.536;2023-04-25T11:42:19;4.10;;;0.90;;
53654;SDS011;39558;52.028;8.536;2023-04-25T11:44:45;5.03;;;1.10;;
53654;SDS011;39558;52.028;8.536;2023-04-25T11:47:11;7.47;;;1.35;;
53654;SDS011;39558;52.028;8.536;2023-04-25T11:49:37;4.22;;;1.25;;
53654;SDS011;39558;52.028;8.536;2023-04-25T11:52:05;4.95;;;1.17;;
53654;SDS011;39558;52.028;8.536;2023-04-25T11:54:34;4.63;;;1.17;;
53654;SDS011;39558;52.028;8.536;2023-04-25T11:57:00;4.35;;;0.93;;
53654;SDS011;39558;52.028;8.536;2023-04-25T11:59:26;6.25;;;1.33;;
53654;SDS011;39558;52.028;8.536;2023-04-25T12:01:52;3.97;;;1.00;;
53654;SDS011;39558;52.028;8.536;2023-04-25T12:04:23;4.82;;;0.85;;
53654;SDS011;39558;52.028;8.536;2023-04-25T12:06:50;4.32;;;1.17;;
53654;SDS011;39558;52.028;8.536;2023-04-25T12:09:20;3.33;;;0.93;;
53654;SDS011;39558;52.028;8.536;2023-04-25T12:11:48;3.42;;;1.00;;
53654;SDS011;39558;52.028;8.536;2023-04-25T12:14:21;5.97;;;1.10;;
53654;SDS011;39558;52.028;8.536;2023-04-25T12:16:48;6.07;;;1.33;;
53654;SDS011;39558;52.028;8.536;2023-04-25T12:19:15;7.32;;;1.05;;
53654;SDS011;39558;52.028;8.536;2023-04-25T12:21:41;5.20;;;1.10;;
53654;SDS011;39558;52.028;8.536;2023-04-25T12:24:11;5.25;;;1.13;;
53654;SDS011;39558;52.028;8.536;2023-04-25T12:26:58;9.50;;;0.90;;
53654;SDS011;39558;52.028;8.536;2023-04-25T12:29:26;8.35;;;1.90;;
53654;SDS011;39558;52.028;8.536;2023-04-25T12:31:53;6.07;;;1.08;;
53654;SDS011;39558;52.028;8.536;2023-04-25T12:34:19;3.05;;;1.20;;
53654;SDS011;39558;52.028;8.536;2023-04-25T12:36:45;7.85;;;1.40;;
53654;SDS011;39558;52.028;8.536;2023-04-25T12:39:18;6.68;;;1.42;;
53654;SDS011;39558;52.028;8.536;2023-04-25T12:41:45;3.15;;;0.82;;
53654;SDS011;39558;52.028;8.536;2023-04-25T12:44:11;5.82;;;1.00;;
53654;SDS011;39558;52.028;8.536;2023-04-25T12:46:38;3.55;;;0.80;;
53654;SDS011;39558;52.028;8.536;2023-04-25T12:49:04;4.57;;;1.02;;
53654;SDS011;39558;52.028;8.536;2023-04-25T12:51:33;7.65;;;1.40;;
53654;SDS011;39558;52.028;8.536;2023-04-25T12:53:59;4.65;;;1.10;;
53654;SDS011;39558;52.028;8.536;2023-04-25T12:56:28;5.60;;;1.17;;
53654;SDS011;39558;52.028;8.536;2023-04-25T12:58:55;4.28;;;0.73;;
53654;SDS011;39558;52.028;8.536;2023-04-25T13:01:21;3.85;;;1.23;;
53654;SDS011;39558;52.028;8.536;2023-04-25T13:03:47;7.28;;;1.10;;
53654;SDS011;39558;52.028;8.536;2023-04-25T13:06:13;4.45;;;1.20;;
53654;SDS011;39558;52.028;8.536;2023-04-25T13:08:40;4.35;;;1.02;;
53654;SDS011;39558;52.028;8.536;2023-04-25T13:11:06;4.32;;;0.95;;
53654;SDS011;39558;52.028;8.536;2023-04-25T13:13:32;5.53;;;0.85;;
53654;SDS011;39558;52.028;8.536;2023-04-25T13:16:00;7.82;;;1.27;;
53654;SDS011;39558;52.028;8.536;2023-04-25T13:18:26;4.18;;;0.88;;
53654;SDS011;39558;52.028;8.536;2023-04-25T13:20:52;5.72;;;1.00;;
53654;SDS011;39558;52.028;8.536;2023-04-25T13:23:19;4.70;;;0.93;;
53654;SDS011;39558;52.028;8.536;2023-04-25T13:25:45;3.60;;;1.42;;
53654;SDS011;39558;52.028;8.536;2023-04-25T13:28:11;7.53;;;1.23;;
53654;SDS011;39558;52.028;8.536;2023-04-25T13:30:37;3.35;;;0.70;;
53654;SDS011;39558;52.028;8.536;2023-04-25T13:33:03;5.60;;;1.23;;
53654;SDS011;39558;52.028;8.536;2023-04-25T13:35:31;4.13;;;1.00;;
53654;SDS011;39558;52.028;8.536;2023-04-25T13:37:57;6.63;;;0.77;;
53654;SDS011;39558;52.028;8.536;2023-04-25T13:40:23;3.55;;;0.90;;
53654;SDS011;39558;52.028;8.536;2023-04-25T13:42:49;5.93;;;1.10;;
53654;SDS011;39558;52.028;8.536;2023-04-25T13:45:16;4.90;;;0.73;;
53654;SDS011;39558;52.028;8.536;2023-04-25T13:47:42;3.88;;;0.85;;
53654;SDS011;39558;52.028;8.536;2023-04-25T13:50:08;2.45;;;0.70;;
53654;SDS011;39558;52.028;8.536;2023-04-25T13:52:34;4.25;;;1.10;;
53654;SDS011;39558;52.028;8.536;2023-04-25T13:55:00;2.78;;;0.65;;
53654;SDS011;39558;52.028;8.536;2023-04-25T13:57:28;4.18;;;1.00;;
53654;SDS011;39558;52.028;8.536;2023-04-25T13:59:55;4.68;;;1.25;;
53654;SDS011;39558;52.028;8.536;2023-04-25T14:02:20;6.75;;;0.90;;
53654;SDS011;39558;52.028;8.536;2023-04-25T14:04:46;5.30;;;0.80;;
53654;SDS011;39558;52.028;8.536;2023-04-25T14:07:13;4.88;;;0.80;;
53654;SDS011;39558;52.028;8.536;2023-04-25T14:09:41;5.95;;;0.85;;
53654;SDS011;39558;52.028;8.536;2023-04-25T14:12:07;8.55;;;1.20;;
53654;SDS011;39558;52.028;8.536;2023-04-25T14:14:33;10.02;;;1.80;;
53654;SDS011;39558;52.028;8.536;2023-04-25T14:16:58;2.97;;;0.90;;
53654;SDS011;39558;52.028;8.536;2023-04-25T14:19:24;4.90;;;1.00;;
53654;SDS011;39558;52.028;8.536;2023-04-25T14:21:50;4.68;;;0.90;;
53654;SDS011;39558;52.028;8.536;2023-04-25T14:24:16;9.25;;;1.10;;
53654;SDS011;39558;52.028;8.536;2023-04-25T14:26:43;5.43;;;1.30;;
53654;SDS011;39558;52.028;8.536;2023-04-25T14:29:09;2.45;;;0.70;;
53654;SDS011;39558;52.028;8.536;2023-04-25T14:31:37;3.80;;;0.75;;
53654;SDS011;39558;52.028;8.536;2023-04-25T14:34:04;2.08;;;0.73;;
53654;SDS011;39558;52.028;8.536;2023-04-25T14:36:30;5.10;;;1.02;;
53654;SDS011;39558;52.028;8.536;2023-04-25T14:38:58;4.47;;;0.82;;
53654;SDS011;39558;52.028;8.536;2023-04-25T14:41:24;4.10;;;0.95;;
53654;SDS011;39558;52.028;8.536;2023-04-25T14:43:50;6.13;;;1.08;;
53654;SDS011;39558;52.028;8.536;2023-04-25T14:46:17;4.88;;;0.88;;
53654;SDS011;39558;52.028;8.536;2023-04-25T14:48:43;4.60;;;1.08;;
53654;SDS011;39558;52.028;8.536;2023-04-25T14:51:11;2.80;;;0.80;;
53654;SDS011;39558;52.028;8.536;2023-04-25T14:53:37;5.22;;;1.10;;
53654;SDS011;39558;52.028;8.536;2023-04-25T14:56:03;3.85;;;0.77;;
53654;SDS011;39558;52.028;8.536;2023-04-25T14:58:30;3.17;;;0.80;;
53654;SDS011;39558;52.028;8.536;2023-04-25T15:00:56;3.05;;;0.98;;